The Official Home Page Of The Professional Rodeo Cowboys Association PRCA RAM WORLD STANDINGS
ProRodeoTv.Com
Red

PRCA Stock Statistics

SEARCH BY:
Stock Rodeo Contestant Stock Contractor

Paden Hurst

EVENT:
Unofficial results reflect placement at time of Web posting and can change.

SEASON BREAKDOWN

Season Attempts Qual Rides Re-rides Ride %
2018 55 52 0 94.55 %
2017 46 41 0 89.13 %
Totals 101 93 0 0.00 %

RODEO DETAIL

Date Location Rodeo SC Brand Ride Comments Stock Score Contestant Score
7/14/2018 Sheridan, WY Sheridan WYO Rodeo SA 709 77.00 20.00 / 19.00 18.00 / 20.00
7/12/2018 Casper, WY Central Wyoming Fair & PRCA Rodeo CC T17 64.00 17.00 / 18.50 10.00 / 18.50
7/7/2018 Estes Park, CO Rooftop Rodeo CC -Q63 81.00 20.00 / 20.00 19.00 / 22.00
7/5/2018 Window Rock, AZ Annual Fourth Of July Celebration & PRCA Rodeo PK 807 77.50 22.50 / 21.00 16.00 / 18.00
7/4/2018 West Jordan, UT Western Stampede CC R86 80.00 20.00 / 19.00 21.00 / 20.00
7/3/2018 Cody, WY Cody Stampede FR 215- 81.50 22.00 / 22.00 18.00 / 19.50
6/30/2018 Prescott, AZ World s Oldest Rodeo HV 350 80.00 19.00 / 19.00 20.00 / 22.00
6/29/2018 Springdale, AR Rodeo of The Ozarks RH 01 58.00 19.00 / 21.00 7.00 / 11.00
6/28/2018 Pecos, TX West Of The Pecos Rodeo PC 1? 74.00 20.00 / 20.00 16.00 / 18.00
6/27/2018 Greeley, CO Greeley Stampede BU 928 72.50 22.00 / 20.50 12.00 / 18.00
6/9/2018 Woodward, OK Woodward Elks Rodeo BU 309 71.00 17.00 / 18.00 18.00 / 18.00
6/8/2018 Gladewater, TX Gladewater Round-Up Rodeo RG X17 76.00 20.00 / 20.00 18.00 / 18.00
6/7/2018 Weatherford, TX Parker County Sheriffs Posse Frontier Days And PRCA Rodeo CR 100 75.00 20.00 / 22.00 16.00 / 17.00
6/6/2018 Cleburne, TX Johnson County Sheriff s Posse RM 016 80.00 22.00 / 21.00 19.00 / 18.00
6/2/2018 Elizabeth, CO Elizabeth Stampede Rodeo SM 198 71.00 18.00 / 17.00 16.00 / 20.00
5/31/2018 Licking, MO Licking PRCA Rodeo CP 371 76.00 20.00 / 21.00 18.00 / 17.00
5/30/2018 Fort Smith, AR Old Fort Days Rodeo BU 22 72.00 19.00 / 21.00 15.00 / 17.00
5/27/2018 Bandera, TX Bandera Pro Rodeo RG G38 77.00 19.00 / 18.50 19.50 / 20.00
5/18/2018 Jacksonville, TX Tops In Texas Rodeo PC 772 85.00 21.00 / 21.00 21.00 / 22.00
5/16/2018 Vernon, TX Santa Rosa Roundup BU 015 82.00 20.00 / 20.00 21.00 / 21.00
5/12/2018 Perkins, OK Grey Snow Annual Rodeo DK 24 76.50 19.50 / 19.00 18.00 / 20.00
5/11/2018 Mineral Wells, TX Mineral Wells Rodeo RG 902 74.50 17.00 / 17.00 20.00 / 20.50
5/4/2018 Helotes, TX Helotes Festival Association Rodeo AN P54 80.50 21.00 / 19.50 20.00 / 20.00
4/27/2018 Athens, TX Henderson County Go Texan Rodeo AN D90 73.00 17.00 / 16.00 19.00 / 21.00
4/20/2018 Longview, TX Longview PRCA Rodeo AN V45 76.00 18.00 / 19.00 18.00 / 21.00
Page of 3
Per Page
 
 
 
PRCA National Sponsors
MGM Grand Polaris Ranger
Copyright © 2018 Professional Rodeo Cowboys Association. All rights reserved. No portion of ProRodeo.com may be duplicated, redistributed or manipulated in any form. By accessing any information beyond this page, you agree to abide by the Terms of Use.
PRCA Wrangler National Finals Rodeo Wrangler ProRodeo Tour Finale Presented by Justin Boots Xtreme Bulls RAM National Circuit Finals Rodeo ProRodeo Gear ProRodeo Tour